sensor_id;sensor_type;location;lat;lon;timestamp;P1;durP1;ratioP1;P2;durP2;ratioP2
13477;SDS011;12598;62.382;17.344;2022-08-21T00:00:13;7.07;;;6.57;;
13477;SDS011;12598;62.382;17.344;2022-08-21T00:01:19;7.10;;;6.60;;
13477;SDS011;12598;62.382;17.344;2022-08-21T00:02:25;7.47;;;6.78;;
13477;SDS011;12598;62.382;17.344;2022-08-21T00:03:28;7.95;;;7.35;;
13477;SDS011;12598;62.382;17.344;2022-08-21T00:04:30;7.93;;;7.25;;
13477;SDS011;12598;62.382;17.344;2022-08-21T00:05:33;6.57;;;6.07;;
13477;SDS011;12598;62.382;17.344;2022-08-21T00:06:37;7.75;;;7.15;;
13477;SDS011;12598;62.382;17.344;2022-08-21T00:07:39;7.80;;;7.20;;
13477;SDS011;12598;62.382;17.344;2022-08-21T00:08:41;7.32;;;6.72;;
13477;SDS011;12598;62.382;17.344;2022-08-21T00:09:43;8.35;;;7.65;;
13477;SDS011;12598;62.382;17.344;2022-08-21T00:10:45;7.65;;;7.05;;
13477;SDS011;12598;62.382;17.344;2022-08-21T00:11:49;7.22;;;6.63;;
13477;SDS011;12598;62.382;17.344;2022-08-21T00:12:50;7.60;;;6.95;;
13477;SDS011;12598;62.382;17.344;2022-08-21T00:13:53;7.65;;;7.05;;
13477;SDS011;12598;62.382;17.344;2022-08-21T00:14:56;7.15;;;6.65;;
13477;SDS011;12598;62.382;17.344;2022-08-21T00:15:59;7.35;;;6.75;;
13477;SDS011;12598;62.382;17.344;2022-08-21T00:17:01;7.43;;;6.82;;
13477;SDS011;12598;62.382;17.344;2022-08-21T00:18:05;7.20;;;6.65;;
13477;SDS011;12598;62.382;17.344;2022-08-21T00:19:09;7.63;;;7.03;;
13477;SDS011;12598;62.382;17.344;2022-08-21T00:20:11;6.80;;;6.20;;
13477;SDS011;12598;62.382;17.344;2022-08-21T00:21:15;7.20;;;6.70;;
13477;SDS011;12598;62.382;17.344;2022-08-21T00:22:18;7.38;;;6.80;;
13477;SDS011;12598;62.382;17.344;2022-08-21T00:23:20;7.93;;;7.32;;
13477;SDS011;12598;62.382;17.344;2022-08-21T00:24:23;7.32;;;6.82;;
13477;SDS011;12598;62.382;17.344;2022-08-21T00:25:26;7.85;;;7.25;;
13477;SDS011;12598;62.382;17.344;2022-08-21T00:26:28;7.50;;;6.90;;
13477;SDS011;12598;62.382;17.344;2022-08-21T00:27:30;7.20;;;6.70;;
13477;SDS011;12598;62.382;17.344;2022-08-21T00:28:32;7.60;;;7.00;;
13477;SDS011;12598;62.382;17.344;2022-08-21T00:29:34;6.90;;;6.40;;
13477;SDS011;12598;62.382;17.344;2022-08-21T00:30:36;6.72;;;6.22;;
13477;SDS011;12598;62.382;17.344;2022-08-21T00:31:38;6.53;;;6.03;;
13477;SDS011;12598;62.382;17.344;2022-08-21T00:32:40;6.88;;;6.38;;
13477;SDS011;12598;62.382;17.344;2022-08-21T00:33:43;6.65;;;6.15;;
13477;SDS011;12598;62.382;17.344;2022-08-21T00:34:45;6.95;;;6.45;;
13477;SDS011;12598;62.382;17.344;2022-08-21T00:35:47;6.90;;;6.38;;
13477;SDS011;12598;62.382;17.344;2022-08-21T00:36:48;7.07;;;6.57;;
13477;SDS011;12598;62.382;17.344;2022-08-21T00:37:50;7.53;;;7.03;;
13477;SDS011;12598;62.382;17.344;2022-08-21T00:38:52;7.35;;;6.82;;
13477;SDS011;12598;62.382;17.344;2022-08-21T00:39:54;7.30;;;6.72;;
13477;SDS011;12598;62.382;17.344;2022-08-21T00:40:57;7.32;;;6.72;;
13477;SDS011;12598;62.382;17.344;2022-08-21T00:42:21;6.80;;;6.30;;
13477;SDS011;12598;62.382;17.344;2022-08-21T00:43:25;6.40;;;5.97;;
13477;SDS011;12598;62.382;17.344;2022-08-21T00:44:30;6.60;;;6.10;;
13477;SDS011;12598;62.382;17.344;2022-08-21T00:45:32;6.68;;;6.18;;
13477;SDS011;12598;62.382;17.344;2022-08-21T00:46:35;6.95;;;6.43;;
13477;SDS011;12598;62.382;17.344;2022-08-21T00:47:38;7.00;;;6.35;;
13477;SDS011;12598;62.382;17.344;2022-08-21T00:48:41;6.43;;;6.00;;
13477;SDS011;12598;62.382;17.344;2022-08-21T00:49:43;6.32;;;5.90;;
13477;SDS011;12598;62.382;17.344;2022-08-21T00:50:50;6.35;;;5.95;;
13477;SDS011;12598;62.382;17.344;2022-08-21T00:51:57;6.15;;;5.75;;
13477;SDS011;12598;62.382;17.344;2022-08-21T00:53:01;6.53;;;6.03;;
13477;SDS011;12598;62.382;17.344;2022-08-21T00:54:05;6.15;;;5.75;;
13477;SDS011;12598;62.382;17.344;2022-08-21T00:55:20;5.93;;;5.43;;
13477;SDS011;12598;62.382;17.344;2022-08-21T00:56:24;6.55;;;6.05;;
13477;SDS011;12598;62.382;17.344;2022-08-21T00:57:32;6.60;;;6.10;;
13477;SDS011;12598;62.382;17.344;2022-08-21T00:58:40;6.93;;;6.38;;
13477;SDS011;12598;62.382;17.344;2022-08-21T00:59:45;6.95;;;6.43;;
13477;SDS011;12598;62.382;17.344;2022-08-21T01:00:49;6.60;;;6.18;;
13477;SDS011;12598;62.382;17.344;2022-08-21T01:01:52;6.75;;;6.20;;
13477;SDS011;12598;62.382;17.344;2022-08-21T01:02:55;6.00;;;5.60;;
13477;SDS011;12598;62.382;17.344;2022-08-21T01:03:58;6.30;;;5.90;;
13477;SDS011;12598;62.382;17.344;2022-08-21T01:05:00;6.32;;;5.93;;
13477;SDS011;12598;62.382;17.344;2022-08-21T01:06:03;6.20;;;5.80;;
13477;SDS011;12598;62.382;17.344;2022-08-21T01:07:05;5.95;;;5.55;;
13477;SDS011;12598;62.382;17.344;2022-08-21T01:08:08;6.32;;;5.82;;
13477;SDS011;12598;62.382;17.344;2022-08-21T01:09:12;6.78;;;6.32;;
13477;SDS011;12598;62.382;17.344;2022-08-21T01:10:14;6.00;;;5.60;;
13477;SDS011;12598;62.382;17.344;2022-08-21T01:11:24;6.43;;;6.03;;
13477;SDS011;12598;62.382;17.344;2022-08-21T01:12:26;6.45;;;5.97;;
13477;SDS011;12598;62.382;17.344;2022-08-21T01:13:28;6.40;;;5.90;;
13477;SDS011;12598;62.382;17.344;2022-08-21T01:14:32;5.97;;;5.47;;
13477;SDS011;12598;62.382;17.344;2022-08-21T01:15:35;5.80;;;5.40;;
13477;SDS011;12598;62.382;17.344;2022-08-21T01:16:43;6.30;;;5.80;;
13477;SDS011;12598;62.382;17.344;2022-08-21T01:17:48;5.90;;;5.50;;
13477;SDS011;12598;62.382;17.344;2022-08-21T01:18:50;5.93;;;5.53;;
13477;SDS011;12598;62.382;17.344;2022-08-21T01:19:53;5.60;;;5.20;;
13477;SDS011;12598;62.382;17.344;2022-08-21T01:21:00;5.82;;;5.43;;
13477;SDS011;12598;62.382;17.344;2022-08-21T01:22:13;5.70;;;5.30;;
13477;SDS011;12598;62.382;17.344;2022-08-21T01:23:15;5.30;;;5.00;;
13477;SDS011;12598;62.382;17.344;2022-08-21T01:24:17;6.00;;;5.60;;
13477;SDS011;12598;62.382;17.344;2022-08-21T01:25:19;5.93;;;5.53;;
13477;SDS011;12598;62.382;17.344;2022-08-21T01:26:23;5.68;;;5.28;;
13477;SDS011;12598;62.382;17.344;2022-08-21T01:27:34;5.65;;;5.25;;
13477;SDS011;12598;62.382;17.344;2022-08-21T01:28:38;5.63;;;5.28;;
13477;SDS011;12598;62.382;17.344;2022-08-21T01:29:48;5.63;;;5.25;;
13477;SDS011;12598;62.382;17.344;2022-08-21T01:31:06;5.47;;;5.15;;
13477;SDS011;12598;62.382;17.344;2022-08-21T01:32:11;5.13;;;4.82;;
13477;SDS011;12598;62.382;17.344;2022-08-21T01:33:16;5.38;;;5.07;;
13477;SDS011;12598;62.382;17.344;2022-08-21T01:34:21;5.70;;;5.30;;
13477;SDS011;12598;62.382;17.344;2022-08-21T01:35:22;5.53;;;5.13;;
13477;SDS011;12598;62.382;17.344;2022-08-21T01:36:25;5.55;;;5.15;;
13477;SDS011;12598;62.382;17.344;2022-08-21T01:37:27;5.55;;;5.15;;
13477;SDS011;12598;62.382;17.344;2022-08-21T01:38:29;5.68;;;5.28;;
13477;SDS011;12598;62.382;17.344;2022-08-21T01:39:31;5.60;;;5.20;;
13477;SDS011;12598;62.382;17.344;2022-08-21T01:40:34;5.40;;;5.10;;
13477;SDS011;12598;62.382;17.344;2022-08-21T01:41:36;6.00;;;5.60;;
13477;SDS011;12598;62.382;17.344;2022-08-21T01:42:38;4.90;;;4.60;;
13477;SDS011;12598;62.382;17.344;2022-08-21T01:43:41;5.50;;;5.10;;
13477;SDS011;12598;62.382;17.344;2022-08-21T01:44:43;5.25;;;4.95;;
13477;SDS011;12598;62.382;17.344;2022-08-21T01:45:45;5.30;;;5.00;;
13477;SDS011;12598;62.382;17.344;2022-08-21T01:46:47;4.85;;;4.55;;
13477;SDS011;12598;62.382;17.344;2022-08-21T01:47:49;5.45;;;5.05;;
13477;SDS011;12598;62.382;17.344;2022-08-21T01:48:51;5.53;;;5.20;;
13477;SDS011;12598;62.382;17.344;2022-08-21T01:49:53;5.55;;;5.25;;
13477;SDS011;12598;62.382;17.344;2022-08-21T01:50:55;5.53;;;5.15;;
13477;SDS011;12598;62.382;17.344;2022-08-21T01:51:57;5.40;;;5.10;;
13477;SDS011;12598;62.382;17.344;2022-08-21T01:52:59;5.57;;;5.18;;
13477;SDS011;12598;62.382;17.344;2022-08-21T01:54:01;5.28;;;4.97;;
13477;SDS011;12598;62.382;17.344;2022-08-21T01:55:04;5.18;;;4.88;;
13477;SDS011;12598;62.382;17.344;2022-08-21T01:56:12;5.18;;;4.88;;
13477;SDS011;12598;62.382;17.344;2022-08-21T01:57:15;4.97;;;4.68;;
13477;SDS011;12598;62.382;17.344;2022-08-21T01:58:17;5.50;;;5.15;;
13477;SDS011;12598;62.382;17.344;2022-08-21T01:59:20;5.45;;;5.05;;
13477;SDS011;12598;62.382;17.344;2022-08-21T02:00:24;5.53;;;5.13;;
13477;SDS011;12598;62.382;17.344;2022-08-21T02:01:26;4.82;;;4.53;;
13477;SDS011;12598;62.382;17.344;2022-08-21T02:02:28;4.68;;;4.38;;
13477;SDS011;12598;62.382;17.344;2022-08-21T02:03:30;5.10;;;4.80;;
13477;SDS011;12598;62.382;17.344;2022-08-21T02:04:36;4.80;;;4.50;;
13477;SDS011;12598;62.382;17.344;2022-08-21T02:05:38;5.03;;;4.72;;
13477;SDS011;12598;62.382;17.344;2022-08-21T02:06:40;5.07;;;4.78;;
13477;SDS011;12598;62.382;17.344;2022-08-21T02:07:43;5.10;;;4.80;;
13477;SDS011;12598;62.382;17.344;2022-08-21T02:08:47;4.63;;;4.32;;
13477;SDS011;12598;62.382;17.344;2022-08-21T02:09:49;5.45;;;5.05;;
13477;SDS011;12598;62.382;17.344;2022-08-21T02:10:51;5.05;;;4.75;;
13477;SDS011;12598;62.382;17.344;2022-08-21T02:11:53;5.03;;;4.72;;
13477;SDS011;12598;62.382;17.344;2022-08-21T02:12:56;5.28;;;4.95;;
13477;SDS011;12598;62.382;17.344;2022-08-21T02:13:59;4.95;;;4.65;;
13477;SDS011;12598;62.382;17.344;2022-08-21T02:15:01;5.28;;;4.97;;
13477;SDS011;12598;62.382;17.344;2022-08-21T02:16:05;5.22;;;4.93;;
13477;SDS011;12598;62.382;17.344;2022-08-21T02:17:09;4.82;;;4.53;;
13477;SDS011;12598;62.382;17.344;2022-08-21T02:18:10;4.88;;;4.57;;
13477;SDS011;12598;62.382;17.344;2022-08-21T02:19:14;5.38;;;5.07;;
13477;SDS011;12598;62.382;17.344;2022-08-21T02:20:18;5.43;;;5.03;;
13477;SDS011;12598;62.382;17.344;2022-08-21T02:21:25;5.00;;;4.70;;
13477;SDS011;12598;62.382;17.344;2022-08-21T02:22:27;4.80;;;4.50;;
13477;SDS011;12598;62.382;17.344;2022-08-21T02:23:29;5.07;;;4.78;;
13477;SDS011;12598;62.382;17.344;2022-08-21T02:24:31;4.85;;;4.55;;
13477;SDS011;12598;62.382;17.344;2022-08-21T02:25:33;5.30;;;5.00;;
13477;SDS011;12598;62.382;17.344;2022-08-21T02:26:35;4.75;;;4.45;;
13477;SDS011;12598;62.382;17.344;2022-08-21T02:27:38;5.22;;;4.93;;
13477;SDS011;12598;62.382;17.344;2022-08-21T02:28:45;5.10;;;4.70;;
13477;SDS011;12598;62.382;17.344;2022-08-21T02:29:47;5.00;;;4.70;;
13477;SDS011;12598;62.382;17.344;2022-08-21T02:30:49;5.55;;;5.15;;
13477;SDS011;12598;62.382;17.344;2022-08-21T02:31:52;4.85;;;4.55;;
13477;SDS011;12598;62.382;17.344;2022-08-21T02:32:54;4.95;;;4.63;;
13477;SDS011;12598;62.382;17.344;2022-08-21T02:33:57;5.15;;;4.75;;
13477;SDS011;12598;62.382;17.344;2022-08-21T02:34:59;5.03;;;4.72;;
13477;SDS011;12598;62.382;17.344;2022-08-21T02:36:01;5.15;;;4.85;;
13477;SDS011;12598;62.382;17.344;2022-08-21T02:37:04;4.55;;;4.25;;
13477;SDS011;12598;62.382;17.344;2022-08-21T02:38:07;5.13;;;4.82;;
13477;SDS011;12598;62.382;17.344;2022-08-21T02:39:13;5.07;;;4.72;;
13477;SDS011;12598;62.382;17.344;2022-08-21T02:40:15;5.70;;;5.30;;
13477;SDS011;12598;62.382;17.344;2022-08-21T02:41:20;5.22;;;4.78;;
13477;SDS011;12598;62.382;17.344;2022-08-21T02:42:22;4.78;;;4.40;;
13477;SDS011;12598;62.382;17.344;2022-08-21T02:43:25;4.93;;;4.63;;
13477;SDS011;12598;62.382;17.344;2022-08-21T02:44:28;4.60;;;4.30;;
13477;SDS011;12598;62.382;17.344;2022-08-21T02:45:35;5.25;;;4.95;;
13477;SDS011;12598;62.382;17.344;2022-08-21T02:46:38;5.03;;;4.72;;
13477;SDS011;12598;62.382;17.344;2022-08-21T02:47:40;4.88;;;4.57;;
13477;SDS011;12598;62.382;17.344;2022-08-21T02:48:48;4.53;;;4.22;;
13477;SDS011;12598;62.382;17.344;2022-08-21T02:49:51;5.18;;;4.88;;
13477;SDS011;12598;62.382;17.344;2022-08-21T02:50:55;4.90;;;4.60;;
13477;SDS011;12598;62.382;17.344;2022-08-21T02:51:59;4.95;;;4.65;;
13477;SDS011;12598;62.382;17.344;2022-08-21T02:53:01;5.20;;;4.90;;
13477;SDS011;12598;62.382;17.344;2022-08-21T02:54:03;4.68;;;4.38;;
13477;SDS011;12598;62.382;17.344;2022-08-21T02:55:05;4.85;;;4.55;;
13477;SDS011;12598;62.382;17.344;2022-08-21T02:56:08;4.68;;;4.38;;
13477;SDS011;12598;62.382;17.344;2022-08-21T02:57:13;5.30;;;4.97;;
13477;SDS011;12598;62.382;17.344;2022-08-21T02:58:16;5.68;;;5.28;;
13477;SDS011;12598;62.382;17.344;2022-08-21T02:59:21;4.93;;;4.63;;
13477;SDS011;12598;62.382;17.344;2022-08-21T03:00:24;5.00;;;4.70;;
13477;SDS011;12598;62.382;17.344;2022-08-21T03:01:27;4.95;;;4.65;;
13477;SDS011;12598;62.382;17.344;2022-08-21T03:02:29;5.13;;;4.82;;
13477;SDS011;12598;62.382;17.344;2022-08-21T03:03:31;4.70;;;4.40;;
13477;SDS011;12598;62.382;17.344;2022-08-21T03:04:36;5.35;;;5.05;;
13477;SDS011;12598;62.382;17.344;2022-08-21T03:05:38;5.10;;;4.80;;
13477;SDS011;12598;62.382;17.344;2022-08-21T03:06:40;5.13;;;4.72;;
13477;SDS011;12598;62.382;17.344;2022-08-21T03:07:42;4.82;;;4.53;;
13477;SDS011;12598;62.382;17.344;2022-08-21T03:08:45;4.93;;;4.63;;
13477;SDS011;12598;62.382;17.344;2022-08-21T03:09:47;4.82;;;4.53;;
13477;SDS011;12598;62.382;17.344;2022-08-21T03:10:56;5.38;;;5.00;;
13477;SDS011;12598;62.382;17.344;2022-08-21T03:11:58;5.22;;;4.82;;
13477;SDS011;12598;62.382;17.344;2022-08-21T03:12:59;4.82;;;4.53;;
13477;SDS011;12598;62.382;17.344;2022-08-21T03:14:01;5.05;;;4.75;;
13477;SDS011;12598;62.382;17.344;2022-08-21T03:15:05;5.05;;;4.75;;
13477;SDS011;12598;62.382;17.344;2022-08-21T03:16:10;5.75;;;5.35;;
13477;SDS011;12598;62.382;17.344;2022-08-21T03:17:12;5.18;;;4.75;;
13477;SDS011;12598;62.382;17.344;2022-08-21T03:18:14;4.38;;;4.07;;
13477;SDS011;12598;62.382;17.344;2022-08-21T03:19:16;4.57;;;4.28;;
13477;SDS011;12598;62.382;17.344;2022-08-21T03:20:19;5.03;;;4.72;;
13477;SDS011;12598;62.382;17.344;2022-08-21T03:21:24;4.53;;;4.22;;
13477;SDS011;12598;62.382;17.344;2022-08-21T03:22:26;4.90;;;4.60;;
13477;SDS011;12598;62.382;17.344;2022-08-21T03:23:31;4.40;;;4.10;;
13477;SDS011;12598;62.382;17.344;2022-08-21T03:24:34;5.10;;;4.80;;
13477;SDS011;12598;62.382;17.344;2022-08-21T03:25:36;4.47;;;4.18;;
13477;SDS011;12598;62.382;17.344;2022-08-21T03:26:41;4.82;;;4.53;;
13477;SDS011;12598;62.382;17.344;2022-08-21T03:27:43;5.25;;;4.93;;
13477;SDS011;12598;62.382;17.344;2022-08-21T03:28:45;4.85;;;4.55;;
13477;SDS011;12598;62.382;17.344;2022-08-21T03:29:47;4.85;;;4.55;;
13477;SDS011;12598;62.382;17.344;2022-08-21T03:30:50;5.00;;;4.70;;
13477;SDS011;12598;62.382;17.344;2022-08-21T03:31:53;4.60;;;4.30;;
13477;SDS011;12598;62.382;17.344;2022-08-21T03:32:55;4.47;;;4.22;;
13477;SDS011;12598;62.382;17.344;2022-08-21T03:33:58;4.82;;;4.53;;
13477;SDS011;12598;62.382;17.344;2022-08-21T03:35:00;4.97;;;4.68;;
13477;SDS011;12598;62.382;17.344;2022-08-21T03:36:05;4.70;;;4.40;;
13477;SDS011;12598;62.382;17.344;2022-08-21T03:37:09;4.90;;;4.60;;
13477;SDS011;12598;62.382;17.344;2022-08-21T03:38:12;4.00;;;3.70;;
13477;SDS011;12598;62.382;17.344;2022-08-21T03:39:16;4.63;;;4.32;;
13477;SDS011;12598;62.382;17.344;2022-08-21T03:40:20;4.68;;;4.38;;
13477;SDS011;12598;62.382;17.344;2022-08-21T03:41:25;5.15;;;4.85;;
13477;SDS011;12598;62.382;17.344;2022-08-21T03:42:27;4.30;;;4.00;;
13477;SDS011;12598;62.382;17.344;2022-08-21T03:43:29;4.20;;;4.00;;
13477;SDS011;12598;62.382;17.344;2022-08-21T03:44:33;4.63;;;4.32;;
13477;SDS011;12598;62.382;17.344;2022-08-21T03:45:35;4.50;;;4.20;;
13477;SDS011;12598;62.382;17.344;2022-08-21T03:46:38;4.47;;;4.18;;
13477;SDS011;12598;62.382;17.344;2022-08-21T03:47:54;4.55;;;4.25;;
13477;SDS011;12598;62.382;17.344;2022-08-21T03:48:58;4.70;;;4.40;;
13477;SDS011;12598;62.382;17.344;2022-08-21T03:50:00;4.47;;;4.18;;
13477;SDS011;12598;62.382;17.344;2022-08-21T03:51:03;4.45;;;4.15;;
13477;SDS011;12598;62.382;17.344;2022-08-21T03:52:06;4.43;;;4.22;;
13477;SDS011;12598;62.382;17.344;2022-08-21T03:53:08;4.50;;;4.20;;
13477;SDS011;12598;62.382;17.344;2022-08-21T03:54:17;4.35;;;4.13;;
13477;SDS011;12598;62.382;17.344;2022-08-21T03:55:20;4.95;;;4.65;;
13477;SDS011;12598;62.382;17.344;2022-08-21T03:56:22;4.38;;;4.18;;
13477;SDS011;12598;62.382;17.344;2022-08-21T03:57:24;4.45;;;4.15;;
13477;SDS011;12598;62.382;17.344;2022-08-21T03:58:26;4.47;;;4.28;;
13477;SDS011;12598;62.382;17.344;2022-08-21T03:59:29;4.10;;;3.88;;
13477;SDS011;12598;62.382;17.344;2022-08-21T04:00:31;4.45;;;4.18;;
13477;SDS011;12598;62.382;17.344;2022-08-21T04:01:33;4.03;;;3.75;;
13477;SDS011;12598;62.382;17.344;2022-08-21T04:02:35;4.03;;;3.83;;
13477;SDS011;12598;62.382;17.344;2022-08-21T04:03:37;4.25;;;3.95;;
13477;SDS011;12598;62.382;17.344;2022-08-21T04:04:39;4.70;;;4.40;;
13477;SDS011;12598;62.382;17.344;2022-08-21T04:05:41;4.93;;;4.63;;
13477;SDS011;12598;62.382;17.344;2022-08-21T04:06:43;4.72;;;4.43;;
13477;SDS011;12598;62.382;17.344;2022-08-21T04:07:45;4.50;;;4.20;;
13477;SDS011;12598;62.382;17.344;2022-08-21T04:08:46;4.82;;;4.53;;
13477;SDS011;12598;62.382;17.344;2022-08-21T04:09:48;4.30;;;4.00;;
13477;SDS011;12598;62.382;17.344;2022-08-21T04:10:52;4.55;;;4.25;;
13477;SDS011;12598;62.382;17.344;2022-08-21T04:11:56;4.53;;;4.22;;
13477;SDS011;12598;62.382;17.344;2022-08-21T04:13:00;4.70;;;4.40;;
13477;SDS011;12598;62.382;17.344;2022-08-21T04:14:03;4.75;;;4.45;;
13477;SDS011;12598;62.382;17.344;2022-08-21T04:15:05;5.13;;;4.75;;
13477;SDS011;12598;62.382;17.344;2022-08-21T04:16:07;4.60;;;4.30;;
13477;SDS011;12598;62.382;17.344;2022-08-21T04:17:10;4.47;;;4.18;;
13477;SDS011;12598;62.382;17.344;2022-08-21T04:18:12;4.38;;;4.07;;
13477;SDS011;12598;62.382;17.344;2022-08-21T04:19:14;4.72;;;4.43;;
13477;SDS011;12598;62.382;17.344;2022-08-21T04:20:17;5.10;;;4.80;;
13477;SDS011;12598;62.382;17.344;2022-08-21T04:21:20;4.57;;;4.28;;
13477;SDS011;12598;62.382;17.344;2022-08-21T04:22:24;5.28;;;4.88;;
13477;SDS011;12598;62.382;17.344;2022-08-21T04:23:26;4.72;;;4.43;;
13477;SDS011;12598;62.382;17.344;2022-08-21T04:24:29;4.57;;;4.28;;
13477;SDS011;12598;62.382;17.344;2022-08-21T04:25:31;4.60;;;4.30;;
13477;SDS011;12598;62.382;17.344;2022-08-21T04:26:36;4.53;;;4.22;;
13477;SDS011;12598;62.382;17.344;2022-08-21T04:27:39;5.15;;;4.75;;
13477;SDS011;12598;62.382;17.344;2022-08-21T04:28:41;4.93;;;4.53;;
13477;SDS011;12598;62.382;17.344;2022-08-21T04:29:44;4.85;;;4.45;;
13477;SDS011;12598;62.382;17.344;2022-08-21T04:30:46;5.25;;;4.82;;
13477;SDS011;12598;62.382;17.344;2022-08-21T04:31:48;4.63;;;4.32;;
13477;SDS011;12598;62.382;17.344;2022-08-21T04:32:50;5.25;;;4.85;;
13477;SDS011;12598;62.382;17.344;2022-08-21T04:33:52;5.03;;;4.65;;
13477;SDS011;12598;62.382;17.344;2022-08-21T04:34:58;5.03;;;4.63;;
13477;SDS011;12598;62.382;17.344;2022-08-21T04:36:01;5.20;;;4.80;;
13477;SDS011;12598;62.382;17.344;2022-08-21T04:37:03;5.43;;;5.03;;
13477;SDS011;12598;62.382;17.344;2022-08-21T04:38:05;4.90;;;4.50;;
13477;SDS011;12598;62.382;17.344;2022-08-21T04:39:07;5.20;;;4.80;;
13477;SDS011;12598;62.382;17.344;2022-08-21T04:40:11;5.15;;;4.75;;
13477;SDS011;12598;62.382;17.344;2022-08-21T04:41:15;5.85;;;5.05;;
13477;SDS011;12598;62.382;17.344;2022-08-21T04:42:25;5.03;;;4.60;;
13477;SDS011;12598;62.382;17.344;2022-08-21T04:43:29;4.80;;;4.45;;
13477;SDS011;12598;62.382;17.344;2022-08-21T04:44:30;5.03;;;4.70;;
13477;SDS011;12598;62.382;17.344;2022-08-21T04:45:33;5.18;;;4.70;;
13477;SDS011;12598;62.382;17.344;2022-08-21T04:46:39;5.43;;;4.97;;
13477;SDS011;12598;62.382;17.344;2022-08-21T04:47:40;5.07;;;4.68;;
13477;SDS011;12598;62.382;17.344;2022-08-21T04:48:53;5.05;;;4.65;;
13477;SDS011;12598;62.382;17.344;2022-08-21T04:49:55;5.00;;;4.70;;
13477;SDS011;12598;62.382;17.344;2022-08-21T04:51:00;4.95;;;4.55;;
13477;SDS011;12598;62.382;17.344;2022-08-21T04:52:17;4.70;;;4.40;;
13477;SDS011;12598;62.382;17.344;2022-08-21T04:53:26;4.95;;;4.57;;
13477;SDS011;12598;62.382;17.344;2022-08-21T04:54:33;4.60;;;4.30;;
13477;SDS011;12598;62.382;17.344;2022-08-21T04:55:35;4.90;;;4.57;;
13477;SDS011;12598;62.382;17.344;2022-08-21T04:58:13;4.75;;;4.45;;
13477;SDS011;12598;62.382;17.344;2022-08-21T04:59:19;5.32;;;4.93;;
13477;SDS011;12598;62.382;17.344;2022-08-21T05:00:24;5.25;;;4.75;;
13477;SDS011;12598;62.382;17.344;2022-08-21T05:01:27;5.20;;;4.80;;
13477;SDS011;12598;62.382;17.344;2022-08-21T05:02:30;5.20;;;4.80;;
13477;SDS011;12598;62.382;17.344;2022-08-21T05:03:34;5.10;;;4.70;;
13477;SDS011;12598;62.382;17.344;2022-08-21T05:04:39;4.90;;;4.50;;
13477;SDS011;12598;62.382;17.344;2022-08-21T05:05:45;4.82;;;4.53;;
13477;SDS011;12598;62.382;17.344;2022-08-21T05:06:47;4.63;;;4.25;;
13477;SDS011;12598;62.382;17.344;2022-08-21T05:07:50;4.47;;;4.18;;
13477;SDS011;12598;62.382;17.344;2022-08-21T05:08:54;4.82;;;4.53;;
13477;SDS011;12598;62.382;17.344;2022-08-21T05:10:02;5.43;;;5.03;;
13477;SDS011;12598;62.382;17.344;2022-08-21T05:11:05;4.88;;;4.47;;
13477;SDS011;12598;62.382;17.344;2022-08-21T05:12:08;4.75;;;4.35;;
13477;SDS011;12598;62.382;17.344;2022-08-21T05:13:11;4.88;;;4.47;;
13477;SDS011;12598;62.382;17.344;2022-08-21T05:14:14;5.53;;;5.13;;
13477;SDS011;12598;62.382;17.344;2022-08-21T05:15:17;5.22;;;4.82;;
13477;SDS011;12598;62.382;17.344;2022-08-21T05:16:19;4.97;;;4.65;;
13477;SDS011;12598;62.382;17.344;2022-08-21T05:17:38;5.32;;;4.93;;
13477;SDS011;12598;62.382;17.344;2022-08-21T05:18:40;5.03;;;4.63;;
13477;SDS011;12598;62.382;17.344;2022-08-21T05:19:42;4.75;;;4.38;;
13477;SDS011;12598;62.382;17.344;2022-08-21T05:20:44;4.60;;;4.30;;
13477;SDS011;12598;62.382;17.344;2022-08-21T05:21:47;4.72;;;4.32;;
13477;SDS011;12598;62.382;17.344;2022-08-21T05:22:49;4.80;;;4.30;;
13477;SDS011;12598;62.382;17.344;2022-08-21T05:23:51;4.55;;;4.25;;
13477;SDS011;12598;62.382;17.344;2022-08-21T05:24:52;4.55;;;4.25;;
13477;SDS011;12598;62.382;17.344;2022-08-21T05:25:54;4.53;;;4.13;;
13477;SDS011;12598;62.382;17.344;2022-08-21T05:26:57;4.75;;;4.35;;
13477;SDS011;12598;62.382;17.344;2022-08-21T05:28:04;4.07;;;3.78;;
13477;SDS011;12598;62.382;17.344;2022-08-21T05:29:07;4.60;;;4.22;;
13477;SDS011;12598;62.382;17.344;2022-08-21T05:30:13;4.47;;;4.18;;
13477;SDS011;12598;62.382;17.344;2022-08-21T05:31:15;5.00;;;4.60;;
13477;SDS011;12598;62.382;17.344;2022-08-21T05:32:17;4.53;;;4.18;;
13477;SDS011;12598;62.382;17.344;2022-08-21T05:33:19;4.63;;;4.32;;
13477;SDS011;12598;62.382;17.344;2022-08-21T05:34:21;4.28;;;3.97;;
13477;SDS011;12598;62.382;17.344;2022-08-21T05:35:25;4.63;;;4.30;;
13477;SDS011;12598;62.382;17.344;2022-08-21T05:36:27;4.40;;;4.10;;
13477;SDS011;12598;62.382;17.344;2022-08-21T05:37:29;4.10;;;3.80;;
13477;SDS011;12598;62.382;17.344;2022-08-21T05:38:31;4.68;;;4.30;;
13477;SDS011;12598;62.382;17.344;2022-08-21T05:39:33;4.85;;;4.45;;
13477;SDS011;12598;62.382;17.344;2022-08-21T05:40:54;4.82;;;4.53;;
13477;SDS011;12598;62.382;17.344;2022-08-21T05:41:56;4.78;;;4.47;;
13477;SDS011;12598;62.382;17.344;2022-08-21T05:42:59;4.60;;;4.30;;
13477;SDS011;12598;62.382;17.344;2022-08-21T05:44:02;4.72;;;4.43;;
13477;SDS011;12598;62.382;17.344;2022-08-21T05:45:10;4.32;;;4.03;;
13477;SDS011;12598;62.382;17.344;2022-08-21T05:46:12;4.55;;;4.18;;
13477;SDS011;12598;62.382;17.344;2022-08-21T05:47:14;4.40;;;4.10;;
13477;SDS011;12598;62.382;17.344;2022-08-21T05:48:17;4.68;;;4.38;;
13477;SDS011;12598;62.382;17.344;2022-08-21T05:49:24;4.20;;;3.90;;
13477;SDS011;12598;62.382;17.344;2022-08-21T05:50:25;4.68;;;4.30;;
13477;SDS011;12598;62.382;17.344;2022-08-21T05:51:33;4.60;;;4.30;;
13477;SDS011;12598;62.382;17.344;2022-08-21T05:52:35;4.47;;;4.18;;
13477;SDS011;12598;62.382;17.344;2022-08-21T05:53:37;4.45;;;4.05;;
13477;SDS011;12598;62.382;17.344;2022-08-21T05:54:39;4.07;;;3.78;;
13477;SDS011;12598;62.382;17.344;2022-08-21T05:55:41;4.40;;;4.00;;
13477;SDS011;12598;62.382;17.344;2022-08-21T05:56:46;4.32;;;4.03;;
13477;SDS011;12598;62.382;17.344;2022-08-21T05:57:48;4.80;;;4.40;;
13477;SDS011;12598;62.382;17.344;2022-08-21T05:58:51;4.40;;;4.10;;
13477;SDS011;12598;62.382;17.344;2022-08-21T05:59:53;5.00;;;4.55;;
13477;SDS011;12598;62.382;17.344;2022-08-21T06:00:54;5.05;;;4.68;;
13477;SDS011;12598;62.382;17.344;2022-08-21T06:01:56;5.38;;;4.97;;
13477;SDS011;12598;62.382;17.344;2022-08-21T06:03:03;4.85;;;4.45;;
13477;SDS011;12598;62.382;17.344;2022-08-21T06:04:05;5.30;;;4.90;;
13477;SDS011;12598;62.382;17.344;2022-08-21T06:05:08;5.07;;;4.65;;
13477;SDS011;12598;62.382;17.344;2022-08-21T06:06:10;5.07;;;4.38;;
13477;SDS011;12598;62.382;17.344;2022-08-21T06:07:12;4.88;;;4.47;;
13477;SDS011;12598;62.382;17.344;2022-08-21T06:08:14;4.95;;;4.55;;
13477;SDS011;12598;62.382;17.344;2022-08-21T06:09:17;4.72;;;4.32;;
13477;SDS011;12598;62.382;17.344;2022-08-21T06:10:19;5.32;;;4.93;;
13477;SDS011;12598;62.382;17.344;2022-08-21T06:11:21;5.03;;;4.63;;
13477;SDS011;12598;62.382;17.344;2022-08-21T06:12:29;4.63;;;4.32;;
13477;SDS011;12598;62.382;17.344;2022-08-21T06:13:31;5.20;;;4.70;;
13477;SDS011;12598;62.382;17.344;2022-08-21T06:14:34;4.80;;;4.50;;
13477;SDS011;12598;62.382;17.344;2022-08-21T06:15:36;4.93;;;4.43;;
13477;SDS011;12598;62.382;17.344;2022-08-21T06:16:38;5.10;;;4.70;;
13477;SDS011;12598;62.382;17.344;2022-08-21T06:17:40;5.35;;;4.95;;